Orange City, IA (51041)

5:29 PM CDT on September 29, 2016 (GMT -0500)
NWC Rec Center | | Change Station

Elev 1411 ft 43.00 °N, 96.06 °W | Updated 21 minutes ago

Haze
Haze
68.9 °F
Feels Like 68.9 °F
N
2.5
Wind Variable Wind from ENE
Gusts 0.0 mph

Today
High -- | Low -- °F
--% Chance of Precip.
Yesterday
High -- | Low -- °F
Precip. -- in
Pressure 30.36 in
Visibility 1.0 miles
Clouds Clear
Dew Point 51 °F
Humidity 52%
Rainfall 0.00 in
Snow Depth Not available.
7:19 AM 7:08 PM
Waning Crescent, 1% visible
METAR KLRJ 292215Z AUTO 08003KT 1SM HZ CLR 21/08 A3036 RMK AO2
Pressure 30.36 in
Visibility 1.0 miles
Clouds Clear
Dew Point 51 °F
Humidity 52%
Rainfall 0.00 in
Snow Depth Not available.
7:19 AM 7:08 PM
Waning Crescent, 1% visible
METAR KLRJ 292215Z AUTO 08003KT 1SM HZ CLR 21/08 A3036 RMK AO2

10-Day Weather Forecast

Almanac

Astronomy

Sep. 29, 2016 Rise Set
Actual Time
Civil Twilight
Nautical Twilight
Astronomical Twilight
Moon
Length of Visible Light
Length of Day
Tomorrow will be .
, % of the Moon is Illuminated

Today's Extremes

State Highs State Lows

Community

WunderPhotos

Upload Photos

1,942,591 photos uploaded!

WunderBlog® & News

Nearby

Air Quality

  Air Quality AQ Index Pollutant
Not available.

Snow Depth

Station Depth Elevation

Earthquake Activity

City Distance Mag. Time & Date
Minimum magnitude displayed is 2.5.

Coastal Water Temperatures

Place Temperature

Stations

Nearby Weather Stations

Station Location Temp. Windchill Dew Point Humidity Wind Precip. Elev Updated Type
                   

Watches & Warnings

There are currently no watches in effect.